Time;durP1;ratioP1;P1;durP2;ratioP2;P2;SDS_P1;SDS_P2;PMS_P1;PMS_P2;Temp;Humidity;BMP_temperature;BMP_pressure;BME280_temperature;BME280_humidity;BME280_pressure;Samples;Min_cycle;Max_cycle;Signal;HPM_P1;HPM_P2
2021/03/24 00:00:25;;;;;;;11.98;3.92;;;;;;;;;;4853459;29;20048;-80
2021/03/24 00:02:55;;;;;;;12.25;4.03;;;;;;;;;;4892229;29;20028;-81
2021/03/24 00:05:28;;;;;;;13.63;4.60;;;;;;;;;;4883567;29;20107;-81
2021/03/24 00:07:56;;;;;;;12.25;4.45;;;;;;;;;;4881713;29;20051;-80
2021/03/24 00:10:24;;;;;;;12.38;4.30;;;;;;;;;;4842682;29;20049;-81
2021/03/24 00:12:51;;;;;;;11.48;4.25;;;;;;;;;;4838884;29;20037;-80
2021/03/24 00:15:19;;;;;;;11.93;4.45;;;;;;;;;;4856800;29;20036;-80
2021/03/24 00:17:48;;;;;;;13.38;4.63;;;;;;;;;;4863211;29;20040;-83
2021/03/24 00:20:17;;;;;;;11.10;4.13;;;;;;;;;;4823809;29;20052;-80
2021/03/24 00:22:45;;;;;;;11.85;3.90;;;;;;;;;;4862551;29;20103;-82
2021/03/24 00:25:16;;;;;;;10.65;3.60;;;;;;;;;;4877756;29;20128;-81
2021/03/24 00:27:49;;;;;;;10.70;3.50;;;;;;;;;;4873786;29;20044;-81
2021/03/24 00:30:18;;;;;;;10.13;3.47;;;;;;;;;;4870167;29;20044;-80
2021/03/24 00:32:46;;;;;;;11.60;3.30;;;;;;;;;;4880226;29;20044;-80
2021/03/24 00:35:12;;;;;;;11.30;3.55;;;;;;;;;;4887038;28;20047;-81
2021/03/24 00:37:38;;;;;;;;;;;;;;;;;;4900293;29;20223;-80
2021/03/24 00:40:13;;;;;;;13.35;4.22;;;;;;;;;;4883683;28;19923;-81
2021/03/24 00:42:42;;;;;;;10.35;3.33;;;;;;;;;;4880106;29;20611;-80
2021/03/24 00:45:08;;;;;;;13.02;6.10;;;;;;;;;;4893022;29;20115;-82
2021/03/24 00:47:35;;;;;;;13.95;6.60;;;;;;;;;;4889868;29;20083;-82
2021/03/24 00:50:01;;;;;;;15.75;6.45;;;;;;;;;;4869498;29;20048;-79
2021/03/24 00:52:29;;;;;;;15.63;7.03;;;;;;;;;;4848949;29;20048;-80
2021/03/24 00:54:57;;;;;;;15.73;8.13;;;;;;;;;;4893699;28;20044;-80
2021/03/24 00:57:25;;;;;;;17.67;8.75;;;;;;;;;;4898607;29;20127;-83
2021/03/24 00:59:53;;;;;;;16.65;9.02;;;;;;;;;;4917918;28;20040;-79
2021/03/24 01:02:22;;;;;;;16.48;7.88;;;;;;;;;;4904966;29;20036;-79
2021/03/24 01:04:50;;;;;;;18.30;8.55;;;;;;;;;;4890154;29;20118;-79
2021/03/24 01:07:17;;;;;;;17.40;7.78;;;;;;;;;;4894954;28;20039;-80
2021/03/24 01:09:43;;;;;;;20.80;9.00;;;;;;;;;;4879826;28;20062;-79
2021/03/24 01:12:12;;;;;;;21.20;10.60;;;;;;;;;;4884824;28;20401;-81
2021/03/24 01:14:40;;;;;;;20.35;9.30;;;;;;;;;;4900770;29;20024;-80
2021/03/24 01:17:09;;;;;;;15.90;8.13;;;;;;;;;;4888852;28;20059;-80
2021/03/24 01:19:35;;;;;;;15.25;7.97;;;;;;;;;;4899785;29;20036;-80
2021/03/24 01:22:01;;;;;;;;;;;;;;;;;;4900079;29;20095;-80
2021/03/24 01:24:29;;;;;;;15.80;7.68;;;;;;;;;;4887355;29;19926;-80
2021/03/24 01:26:55;;;;;;;16.83;6.07;;;;;;;;;;4889811;29;20055;-80
2021/03/24 01:29:24;;;;;;;12.50;4.60;;;;;;;;;;4887491;28;20532;-80
2021/03/24 01:31:51;;;;;;;10.55;3.95;;;;;;;;;;4913203;28;20046;-79
2021/03/24 01:34:19;;;;;;;9.52;3.60;;;;;;;;;;4910508;28;20048;-80
2021/03/24 01:36:46;;;;;;;10.50;3.83;;;;;;;;;;4883671;28;20091;-80
2021/03/24 01:39:13;;;;;;;10.07;3.13;;;;;;;;;;4896709;28;20032;-81
2021/03/24 01:41:40;;;;;;;10.35;3.08;;;;;;;;;;4911771;28;20159;-80
2021/03/24 01:44:06;;;;;;;8.88;3.28;;;;;;;;;;4895690;29;20071;-81
2021/03/24 01:46:32;;;;;;;;;;;;;;;;;;4879651;29;20075;-80
2021/03/24 01:49:19;;;;;;;12.68;3.83;;;;;;;;;;4904452;28;19919;-80
2021/03/24 01:52:04;;;;;;;10.90;3.00;;;;;;;;;;4899134;29;20062;-81
2021/03/24 01:54:33;;;;;;;10.38;3.00;;;;;;;;;;4887268;29;20044;-81
2021/03/24 01:57:06;;;;;;;8.50;2.55;;;;;;;;;;4894265;29;20143;-80
2021/03/24 01:59:33;;;;;;;9.00;2.53;;;;;;;;;;4888745;29;20183;-81
2021/03/24 02:02:02;;;;;;;10.20;2.63;;;;;;;;;;4875047;28;20043;-80
2021/03/24 02:04:28;;;;;;;10.73;2.85;;;;;;;;;;4894763;28;20183;-81
2021/03/24 02:07:17;;;;;;;9.15;2.70;;;;;;;;;;4882036;29;20031;-80
2021/03/24 02:10:01;;;;;;;8.63;2.65;;;;;;;;;;4863070;29;20095;-81
2021/03/24 02:12:36;;;;;;;9.38;2.60;;;;;;;;;;4896797;29;20063;-80
2021/03/24 02:15:11;;;;;;;8.82;2.50;;;;;;;;;;4895527;28;20047;-80
2021/03/24 02:17:40;;;;;;;10.18;2.80;;;;;;;;;;4891132;29;20047;-80
2021/03/24 02:20:09;;;;;;;7.70;2.22;;;;;;;;;;4886429;29;20040;-80
2021/03/24 02:22:42;;;;;;;9.55;2.58;;;;;;;;;;4873156;29;20108;-81
2021/03/24 02:25:14;;;;;;;10.77;3.17;;;;;;;;;;4893043;29;20590;-80
2021/03/24 02:27:41;;;;;;;11.45;2.60;;;;;;;;;;4902970;29;20174;-81
2021/03/24 02:30:11;;;;;;;7.50;2.50;;;;;;;;;;4883881;29;20128;-79
2021/03/24 02:32:41;;;;;;;8.52;2.47;;;;;;;;;;4910157;29;20102;-80
2021/03/24 02:35:14;;;;;;;7.85;2.65;;;;;;;;;;4880220;28;20043;-81
2021/03/24 02:37:43;;;;;;;11.10;2.70;;;;;;;;;;4886925;28;20087;-80
2021/03/24 02:40:12;;;;;;;8.48;3.00;;;;;;;;;;4868537;28;20054;-79
2021/03/24 02:42:46;;;;;;;13.05;4.13;;;;;;;;;;4904649;28;20039;-81
2021/03/24 02:45:16;;;;;;;13.60;4.38;;;;;;;;;;4889584;28;20050;-81
2021/03/24 02:47:45;;;;;;;12.25;4.40;;;;;;;;;;4907294;28;20019;-80
2021/03/24 02:50:15;;;;;;;11.35;4.22;;;;;;;;;;4899919;28;20075;-81
2021/03/24 02:52:43;;;;;;;11.93;3.75;;;;;;;;;;4904895;28;20036;-81
2021/03/24 02:55:12;;;;;;;10.32;3.90;;;;;;;;;;4916244;28;20052;-81
2021/03/24 02:57:40;;;;;;;11.43;3.80;;;;;;;;;;4893723;28;20044;-81
2021/03/24 03:00:10;;;;;;;10.98;4.10;;;;;;;;;;4887142;28;20051;-81
2021/03/24 03:02:40;;;;;;;15.10;5.07;;;;;;;;;;4897853;28;20035;-81
2021/03/24 03:05:11;;;;;;;12.85;4.43;;;;;;;;;;4900113;28;20052;-80
2021/03/24 03:07:49;;;;;;;12.90;3.90;;;;;;;;;;4868479;29;20035;-81
2021/03/24 03:10:17;;;;;;;11.98;3.70;;;;;;;;;;4905029;28;20404;-81
2021/03/24 03:13:04;;;;;;;8.85;3.13;;;;;;;;;;4918570;28;20496;-81
2021/03/24 03:15:33;;;;;;;8.00;2.70;;;;;;;;;;4917176;28;20047;-81
2021/03/24 03:18:09;;;;;;;10.65;3.00;;;;;;;;;;4917870;28;20042;-81
2021/03/24 03:20:41;;;;;;;10.50;3.13;;;;;;;;;;4914162;28;20109;-80
2021/03/24 03:23:12;;;;;;;9.85;3.22;;;;;;;;;;4873732;29;20040;-80
2021/03/24 03:25:42;;;;;;;8.40;3.40;;;;;;;;;;4894922;28;20219;-81
2021/03/24 03:28:14;;;;;;;10.40;3.45;;;;;;;;;;4899267;28;20369;-80
2021/03/24 03:30:42;;;;;;;11.30;2.95;;;;;;;;;;4924187;28;20371;-80
2021/03/24 03:33:13;;;;;;;9.05;2.65;;;;;;;;;;4894097;29;20036;-80
2021/03/24 03:35:41;;;;;;;9.23;2.95;;;;;;;;;;4902740;29;20044;-80
2021/03/24 03:38:12;;;;;;;9.90;3.10;;;;;;;;;;4874722;29;20048;-80
2021/03/24 03:40:40;;;;;;;8.63;2.60;;;;;;;;;;4887973;29;20168;-79
2021/03/24 03:43:09;;;;;;;9.35;2.75;;;;;;;;;;4888931;29;20122;-80
2021/03/24 03:45:41;;;;;;;9.15;2.83;;;;;;;;;;4870018;29;20047;-80
2021/03/24 03:48:09;;;;;;;9.88;3.13;;;;;;;;;;4873701;29;20493;-81
2021/03/24 03:50:37;;;;;;;8.77;2.88;;;;;;;;;;4905531;29;20035;-81
2021/03/24 03:53:13;;;;;;;9.70;3.35;;;;;;;;;;4900973;28;20082;-81
2021/03/24 03:55:47;;;;;;;9.32;3.03;;;;;;;;;;4906849;28;20094;-80
2021/03/24 03:58:37;;;;;;;10.63;3.00;;;;;;;;;;4893646;28;20894;-81
2021/03/24 04:01:03;;;;;;;9.40;3.17;;;;;;;;;;4899037;29;20054;-81
2021/03/24 04:03:33;;;;;;;11.18;3.20;;;;;;;;;;4901144;28;20032;-80
2021/03/24 04:06:03;;;;;;;8.77;2.47;;;;;;;;;;4890992;29;20047;-80
2021/03/24 04:08:33;;;;;;;9.88;3.15;;;;;;;;;;4903216;29;20040;-82
2021/03/24 04:11:03;;;;;;;9.13;3.08;;;;;;;;;;4900315;28;20040;-80
2021/03/24 04:13:32;;;;;;;10.48;3.03;;;;;;;;;;4916737;28;20031;-81
2021/03/24 04:16:00;;;;;;;8.43;2.97;;;;;;;;;;4891571;28;20142;-81
2021/03/24 04:18:39;;;;;;;13.35;3.00;;;;;;;;;;4912056;28;20039;-80
2021/03/24 04:21:07;;;;;;;11.32;3.40;;;;;;;;;;4890574;28;20051;-80
2021/03/24 04:23:37;;;;;;;8.20;2.80;;;;;;;;;;4896765;29;20035;-81
2021/03/24 04:26:08;;;;;;;11.15;3.22;;;;;;;;;;4885126;28;20035;-80
2021/03/24 04:28:37;;;;;;;9.07;2.80;;;;;;;;;;4885780;29;20075;-82
2021/03/24 04:31:07;;;;;;;8.55;2.70;;;;;;;;;;4896343;29;20044;-80
2021/03/24 04:33:36;;;;;;;8.07;2.45;;;;;;;;;;4906559;29;20043;-80
2021/03/24 04:36:19;;;;;;;8.50;2.40;;;;;;;;;;4909592;28;20035;-81
2021/03/24 04:38:49;;;;;;;6.80;2.17;;;;;;;;;;4917948;29;20063;-81
2021/03/24 04:41:21;;;;;;;7.80;2.35;;;;;;;;;;4892399;28;20048;-80
2021/03/24 04:43:53;;;;;;;9.73;3.03;;;;;;;;;;4911716;28;20036;-81
2021/03/24 04:46:24;;;;;;;8.00;2.70;;;;;;;;;;4914969;28;20028;-80
2021/03/24 04:48:54;;;;;;;7.10;2.45;;;;;;;;;;4920361;28;20118;-80
2021/03/24 04:51:29;;;;;;;9.82;2.60;;;;;;;;;;4912928;28;20028;-79
2021/03/24 04:54:19;;;;;;;8.77;2.70;;;;;;;;;;4899532;29;20428;-80
2021/03/24 04:56:52;;;;;;;9.95;2.70;;;;;;;;;;4913722;28;20044;-79
2021/03/24 04:59:21;;;;;;;9.45;2.50;;;;;;;;;;4893748;28;20046;-81
2021/03/24 05:01:55;;;;;;;8.20;2.50;;;;;;;;;;4885029;29;20104;-80
2021/03/24 05:04:35;;;;;;;7.90;2.20;;;;;;;;;;4902420;29;20043;-80
2021/03/24 05:07:17;;;;;;;10.85;2.53;;;;;;;;;;4900297;29;20064;-81
2021/03/24 05:09:45;;;;;;;7.68;2.50;;;;;;;;;;4916162;28;20531;-80
2021/03/24 05:12:28;;;;;;;8.52;2.20;;;;;;;;;;4885812;29;20032;-80
2021/03/24 05:15:00;;;;;;;11.07;2.70;;;;;;;;;;4891475;29;20048;-81
2021/03/24 05:17:28;;;;;;;10.32;2.40;;;;;;;;;;4891657;28;20135;-80
2021/03/24 05:20:00;;;;;;;8.25;2.42;;;;;;;;;;4902021;29;20039;-81
2021/03/24 05:22:38;;;;;;;8.70;2.35;;;;;;;;;;4900613;29;20598;-80
2021/03/24 05:25:07;;;;;;;8.20;2.40;;;;;;;;;;4893770;28;20181;-80
2021/03/24 05:27:55;;;;;;;8.57;2.10;;;;;;;;;;4889982;28;20151;-79
2021/03/24 05:30:45;;;;;;;10.25;2.45;;;;;;;;;;4882590;28;20044;-80
2021/03/24 05:33:32;;;;;;;8.55;2.60;;;;;;;;;;4876701;28;20039;-80
2021/03/24 05:36:03;;;;;;;9.30;2.22;;;;;;;;;;4905720;29;20853;-80
2021/03/24 05:38:36;;;;;;;7.30;2.30;;;;;;;;;;4898916;29;21115;-80
2021/03/24 05:41:25;;;;;;;11.13;2.50;;;;;;;;;;4892345;28;20040;-80
2021/03/24 05:44:03;;;;;;;8.20;2.30;;;;;;;;;;4805653;29;20038;-80
2021/03/24 05:46:43;;;;;;;9.90;3.47;;;;;;;;;;4811190;29;20161;-80
2021/03/24 05:49:19;;;;;;;9.30;2.50;;;;;;;;;;4825882;29;20045;-80
2021/03/24 05:51:50;;;;;;;8.50;2.47;;;;;;;;;;4802540;29;20046;-79
2021/03/24 05:54:50;;;;;;;9.40;2.30;;;;;;;;;;4806294;29;20821;-80
2021/03/24 05:57:41;;;;;;;8.27;2.50;;;;;;;;;;4770686;29;20137;-79
2021/03/24 06:00:22;;;;;;;9.48;2.72;;;;;;;;;;4775086;29;20042;-80
2021/03/24 06:02:56;;;;;;;8.95;2.70;;;;;;;;;;4782789;29;20208;-79
2021/03/24 06:05:27;;;;;;;8.65;2.50;;;;;;;;;;4759721;29;20133;-80
2021/03/24 06:08:12;;;;;;;8.65;2.60;;;;;;;;;;4706838;29;20048;-81
2021/03/24 06:10:46;;;;;;;9.48;2.42;;;;;;;;;;4764295;29;20088;-80
2021/03/24 06:13:31;;;;;;;7.85;2.50;;;;;;;;;;4768890;29;23969;-80
2021/03/24 06:16:16;;;;;;;8.23;2.40;;;;;;;;;;4760334;29;20070;-82
2021/03/24 06:18:48;;;;;;;7.80;2.08;;;;;;;;;;4752219;29;20095;-82
2021/03/24 06:21:27;;;;;;;8.07;2.28;;;;;;;;;;4809474;29;20055;-79
2021/03/24 06:24:05;;;;;;;9.32;2.20;;;;;;;;;;4831715;29;20068;-80
2021/03/24 06:27:07;;;;;;;7.93;2.38;;;;;;;;;;4836934;29;20044;-81
2021/03/24 06:29:55;;;;;;;8.40;2.72;;;;;;;;;;4784463;29;20511;-80
2021/03/24 06:32:36;;;;;;;10.23;2.75;;;;;;;;;;4822044;29;20575;-80
2021/03/24 06:35:21;;;;;;;11.88;3.47;;;;;;;;;;4887896;29;20071;-80
2021/03/24 06:38:07;;;;;;;9.05;3.10;;;;;;;;;;4897344;28;20181;-80
2021/03/24 06:40:43;;;;;;;8.88;3.15;;;;;;;;;;4900516;29;20095;-80
2021/03/24 06:43:19;;;;;;;12.45;3.80;;;;;;;;;;4897010;29;20174;-80
2021/03/24 06:46:06;;;;;;;12.07;3.95;;;;;;;;;;4886957;29;20044;-80
2021/03/24 06:48:56;;;;;;;12.98;3.92;;;;;;;;;;4897204;28;20411;-79
2021/03/24 06:51:43;;;;;;;11.00;3.45;;;;;;;;;;4884419;29;20050;-81
2021/03/24 06:54:11;;;;;;;10.60;2.70;;;;;;;;;;4872590;29;20048;-81
2021/03/24 06:56:47;;;;;;;11.50;2.58;;;;;;;;;;4882924;29;20020;-81
2021/03/24 06:59:29;;;;;;;8.55;2.70;;;;;;;;;;4878738;29;20178;-83
2021/03/24 07:02:22;;;;;;;8.07;2.50;;;;;;;;;;4897854;29;20355;-85
2021/03/24 07:04:57;;;;;;;10.23;3.25;;;;;;;;;;4835005;29;20046;-84
2021/03/24 07:07:42;;;;;;;11.32;2.88;;;;;;;;;;4815409;29;20041;-84
2021/03/24 07:10:11;;;;;;;9.55;3.20;;;;;;;;;;4793267;29;20030;-83
2021/03/24 07:12:46;;;;;;;12.23;4.25;;;;;;;;;;4801648;29;20572;-82
2021/03/24 07:15:24;;;;;;;11.43;3.72;;;;;;;;;;4818070;29;20045;-83
2021/03/24 07:18:10;;;;;;;10.93;4.00;;;;;;;;;;4836667;29;20033;-83
2021/03/24 07:20:56;;;;;;;11.82;4.50;;;;;;;;;;4827425;29;20578;-83
2021/03/24 07:23:38;;;;;;;12.13;4.95;;;;;;;;;;4823310;29;20033;-83
2021/03/24 07:26:07;;;;;;;12.43;4.80;;;;;;;;;;4833341;29;20042;-83
2021/03/24 07:28:52;;;;;;;12.05;5.47;;;;;;;;;;4812096;29;20037;-84
2021/03/24 07:31:38;;;;;;;12.20;5.15;;;;;;;;;;4801387;29;20045;-81
2021/03/24 07:34:25;;;;;;;13.88;6.20;;;;;;;;;;4822895;29;20227;-81
2021/03/24 07:36:59;;;;;;;13.63;6.90;;;;;;;;;;4834322;29;20037;-82
2021/03/24 07:39:46;;;;;;;17.17;7.20;;;;;;;;;;4789781;29;20173;-81
2021/03/24 07:42:28;;;;;;;17.25;7.07;;;;;;;;;;4850200;28;20036;-81
2021/03/24 07:45:21;;;;;;;15.73;6.43;;;;;;;;;;4888972;29;20035;-81
2021/03/24 07:48:11;;;;;;;15.82;7.15;;;;;;;;;;4864471;29;20056;-81
2021/03/24 07:51:05;;;;;;;14.88;7.32;;;;;;;;;;4812108;29;20541;-82
2021/03/24 07:53:47;;;;;;;11.45;5.03;;;;;;;;;;4830933;29;20061;-82
2021/03/24 07:56:22;;;;;;;18.90;7.70;;;;;;;;;;4826243;29;20061;-81
2021/03/24 07:59:08;;;;;;;13.27;5.38;;;;;;;;;;4831624;29;20045;-82
2021/03/24 08:01:48;;;;;;;16.40;6.82;;;;;;;;;;4812668;29;20042;-82
2021/03/24 08:04:36;;;;;;;14.63;6.22;;;;;;;;;;4796816;29;20051;-80
2021/03/24 08:07:02;;;;;;;;;;;;;;;;;;4784532;29;20050;-81
2021/03/24 08:09:29;;;;;;;;;;;;;;;;;;4809552;29;19916;-81
2021/03/24 08:12:03;;;;;;;12.25;5.60;;;;;;;;;;4814500;29;19927;-81
2021/03/24 08:14:38;;;;;;;14.18;5.25;;;;;;;;;;4821115;29;20533;-80
2021/03/24 08:17:10;;;;;;;14.05;5.55;;;;;;;;;;4804990;29;20034;-81
2021/03/24 08:19:38;;;;;;;12.43;5.03;;;;;;;;;;4826981;29;20045;-80
2021/03/24 08:22:23;;;;;;;13.45;4.40;;;;;;;;;;4842463;29;20044;-83
2021/03/24 08:24:50;;;;;;;14.02;5.38;;;;;;;;;;4868218;29;20313;-85
2021/03/24 08:27:55;;;;;;;14.02;4.93;;;;;;;;;;4838211;29;20036;-82
2021/03/24 08:30:27;;;;;;;12.15;5.03;;;;;;;;;;4824529;29;20123;-86
2021/03/24 08:33:13;;;;;;;13.88;4.32;;;;;;;;;;4834882;29;20319;-82
2021/03/24 08:36:03;;;;;;;11.48;4.50;;;;;;;;;;4839339;29;20038;-83
2021/03/24 08:38:30;;;;;;;13.15;4.40;;;;;;;;;;4835916;29;20232;-83
2021/03/24 08:41:08;;;;;;;11.60;3.72;;;;;;;;;;4832653;29;20047;-83
2021/03/24 08:43:49;;;;;;;10.75;3.95;;;;;;;;;;4847619;29;20041;-82
2021/03/24 08:46:29;;;;;;;10.23;3.55;;;;;;;;;;4829059;29;20180;-83
2021/03/24 08:49:02;;;;;;;11.63;3.15;;;;;;;;;;4831906;29;20125;-83
2021/03/24 08:51:47;;;;;;;11.48;4.05;;;;;;;;;;4832885;29;20038;-82
2021/03/24 08:54:32;;;;;;;10.35;2.83;;;;;;;;;;4824260;29;20041;-83
2021/03/24 08:57:04;;;;;;;9.07;2.90;;;;;;;;;;4835248;29;20032;-85
2021/03/24 08:59:48;;;;;;;10.20;2.17;;;;;;;;;;4829381;29;20745;-83
2021/03/24 09:02:33;;;;;;;9.95;2.70;;;;;;;;;;4878037;29;20538;-83
2021/03/24 09:05:10;;;;;;;8.65;2.33;;;;;;;;;;4902256;29;21031;-83
2021/03/24 09:08:05;;;;;;;8.18;2.50;;;;;;;;;;4906241;29;20044;-82
2021/03/24 09:11:12;;;;;;;10.13;2.70;;;;;;;;;;4875491;29;20064;-82
2021/03/24 09:13:53;;;;;;;10.23;2.65;;;;;;;;;;4796381;29;20563;-84
2021/03/24 09:16:37;;;;;;;8.73;2.72;;;;;;;;;;4772694;29;21122;-85
2021/03/24 09:19:26;;;;;;;10.80;3.13;;;;;;;;;;4788018;29;20624;-83
2021/03/24 09:22:13;;;;;;;10.23;3.30;;;;;;;;;;4780959;29;20121;-83
2021/03/24 09:24:58;;;;;;;14.48;3.88;;;;;;;;;;4796630;29;20046;-82
2021/03/24 09:27:56;;;;;;;11.68;4.00;;;;;;;;;;4787542;29;20050;-81
2021/03/24 09:30:31;;;;;;;9.40;3.10;;;;;;;;;;4713687;30;20202;-82
2021/03/24 09:33:12;;;;;;;13.13;3.30;;;;;;;;;;4729070;30;20052;-82
2021/03/24 09:35:57;;;;;;;15.80;3.90;;;;;;;;;;4716110;30;20048;-81
2021/03/24 09:38:27;;;;;;;11.00;4.30;;;;;;;;;;4722034;29;20113;-84
2021/03/24 09:40:55;;;;;;;10.57;3.20;;;;;;;;;;4753497;29;20034;-82
2021/03/24 09:43:29;;;;;;;11.40;4.25;;;;;;;;;;4772657;29;20300;-82
2021/03/24 09:46:06;;;;;;;49.85;44.40;;;;;;;;;;4761902;29;20039;-82
2021/03/24 09:48:55;;;;;;;15.07;7.63;;;;;;;;;;4766002;29;20038;-84
2021/03/24 09:51:34;;;;;;;11.55;3.33;;;;;;;;;;4818468;29;20068;-83
2021/03/24 09:54:20;;;;;;;9.75;3.00;;;;;;;;;;4830884;29;20052;-82
2021/03/24 09:56:56;;;;;;;11.13;2.55;;;;;;;;;;4813030;29;20045;-82
2021/03/24 09:59:26;;;;;;;11.60;3.13;;;;;;;;;;4800907;29;20128;-81
2021/03/24 10:02:06;;;;;;;8.52;2.55;;;;;;;;;;4809484;29;20048;-81
2021/03/24 10:04:42;;;;;;;9.32;2.60;;;;;;;;;;4817176;29;20049;-81
2021/03/24 10:07:23;;;;;;;11.50;2.80;;;;;;;;;;4837808;29;20085;-84
2021/03/24 10:10:08;;;;;;;9.35;2.95;;;;;;;;;;4895828;28;20039;-82
2021/03/24 10:12:38;;;;;;;11.90;3.30;;;;;;;;;;4910084;29;20036;-82
2021/03/24 10:15:23;;;;;;;7.40;2.58;;;;;;;;;;4908457;28;20040;-81
2021/03/24 10:18:09;;;;;;;10.88;3.47;;;;;;;;;;4918225;29;20547;-80
2021/03/24 10:20:42;;;;;;;10.63;4.25;;;;;;;;;;4925602;28;20399;-83
2021/03/24 10:23:29;;;;;;;9.02;2.72;;;;;;;;;;4888499;28;20033;-81
2021/03/24 10:25:59;;;;;;;9.82;3.53;;;;;;;;;;4891608;29;20048;-91
2021/03/24 10:28:58;;;;;;;7.63;2.58;;;;;;;;;;4922634;28;20130;-91
2021/03/24 10:31:31;;;;;;;10.55;2.50;;;;;;;;;;4873896;29;20033;-89
2021/03/24 10:33:58;;;;;;;11.20;3.63;;;;;;;;;;4878596;29;20059;-90
2021/03/24 10:36:42;;;;;;;9.20;2.90;;;;;;;;;;4880859;29;20073;-83
2021/03/24 10:39:22;;;;;;;8.00;2.47;;;;;;;;;;4842955;29;20111;-84
2021/03/24 10:41:52;;;;;;;10.60;2.65;;;;;;;;;;4844696;29;20037;-86
2021/03/24 10:44:46;;;;;;;9.32;2.47;;;;;;;;;;4835521;29;20146;-84
2021/03/24 10:47:19;;;;;;;13.13;8.35;;;;;;;;;;4829757;29;22943;-86
2021/03/24 10:50:04;;;;;;;9.43;2.70;;;;;;;;;;4864347;29;20041;-86
2021/03/24 10:52:47;;;;;;;10.40;2.80;;;;;;;;;;4819285;29;20063;-86
2021/03/24 10:55:38;;;;;;;7.50;2.10;;;;;;;;;;4811860;29;20482;-85
2021/03/24 10:58:24;;;;;;;9.35;2.65;;;;;;;;;;4837504;29;20057;-84
2021/03/24 11:01:00;;;;;;;7.33;2.33;;;;;;;;;;4853942;29;20092;-83
2021/03/24 11:03:33;;;;;;;8.73;2.60;;;;;;;;;;4839307;29;20292;-84
2021/03/24 11:06:20;;;;;;;8.27;2.20;;;;;;;;;;4857330;29;20029;-85
2021/03/24 11:08:53;;;;;;;8.85;2.60;;;;;;;;;;4902019;29;20103;-84
2021/03/24 11:11:26;;;;;;;7.50;2.10;;;;;;;;;;4896887;28;20096;-83
2021/03/24 11:14:21;;;;;;;7.55;2.30;;;;;;;;;;4903542;29;20063;-83
2021/03/24 11:16:52;;;;;;;8.15;2.10;;;;;;;;;;4892127;29;20433;-84
2021/03/24 11:19:31;;;;;;;6.50;1.77;;;;;;;;;;4904693;28;20051;-84
2021/03/24 11:22:13;;;;;;;6.13;1.90;;;;;;;;;;4905164;29;20046;-85
2021/03/24 11:24:59;;;;;;;12.38;2.38;;;;;;;;;;4888402;29;20059;-83
2021/03/24 11:27:29;;;;;;;9.68;2.88;;;;;;;;;;4896825;29;20053;-84
2021/03/24 11:30:02;;;;;;;9.40;2.30;;;;;;;;;;4908752;29;20107;-85
2021/03/24 11:32:32;;;;;;;10.15;2.80;;;;;;;;;;4907399;29;20551;-85
2021/03/24 11:35:19;;;;;;;8.85;2.58;;;;;;;;;;4926928;28;20043;-86
2021/03/24 11:38:04;;;;;;;8.75;3.10;;;;;;;;;;4908590;29;20048;-86
2021/03/24 11:40:35;;;;;;;8.18;2.50;;;;;;;;;;4938408;28;20118;-86
2021/03/24 11:43:08;;;;;;;7.80;2.55;;;;;;;;;;4920783;28;20523;-87
2021/03/24 11:45:38;;;;;;;5.22;1.73;;;;;;;;;;4893382;29;20124;-83
2021/03/24 11:48:30;;;;;;;7.05;2.05;;;;;;;;;;4908939;28;20032;-82
2021/03/24 11:51:04;;;;;;;7.13;2.08;;;;;;;;;;4922857;28;20036;-87
2021/03/24 11:53:55;;;;;;;7.13;2.00;;;;;;;;;;4925729;28;20041;-82
2021/03/24 11:56:56;;;;;;;6.80;1.85;;;;;;;;;;4912506;28;20367;-83
2021/03/24 11:59:42;;;;;;;6.50;2.10;;;;;;;;;;4880814;29;20044;-84
2021/03/24 12:02:21;;;;;;;5.90;1.80;;;;;;;;;;4863299;29;20076;-84
2021/03/24 12:05:26;;;;;;;7.25;1.83;;;;;;;;;;4881217;29;20044;-86
2021/03/24 12:08:19;;;;;;;8.65;1.63;;;;;;;;;;4820201;29;20113;-86
2021/03/24 12:10:58;;;;;;;5.25;1.48;;;;;;;;;;4822760;29;20037;-79
2021/03/24 12:13:45;;;;;;;7.47;2.08;;;;;;;;;;4833021;29;20049;-80
2021/03/24 12:16:15;;;;;;;7.30;1.98;;;;;;;;;;4822730;29;20049;-79
2021/03/24 12:18:48;;;;;;;6.20;1.75;;;;;;;;;;4823947;29;20117;-81
2021/03/24 12:21:34;;;;;;;6.25;1.90;;;;;;;;;;4816868;29;20045;-81
2021/03/24 12:24:24;;;;;;;6.82;1.85;;;;;;;;;;4827279;29;20198;-81
2021/03/24 12:26:52;;;;;;;4.82;1.50;;;;;;;;;;4793626;29;20107;-80
2021/03/24 12:29:27;;;;;;;4.97;1.48;;;;;;;;;;4807268;29;20600;-82
2021/03/24 12:31:57;;;;;;;5.50;1.60;;;;;;;;;;4786345;29;20043;-81
2021/03/24 12:34:24;;;;;;;8.15;1.50;;;;;;;;;;4786674;29;20061;-82
2021/03/24 12:36:58;;;;;;;7.03;1.60;;;;;;;;;;4763376;29;20041;-80
2021/03/24 12:39:41;;;;;;;7.50;1.70;;;;;;;;;;4830949;29;20132;-82
2021/03/24 12:42:26;;;;;;;5.55;1.50;;;;;;;;;;4859719;29;20044;-82
2021/03/24 12:44:55;;;;;;;6.40;1.45;;;;;;;;;;4869454;29;20048;-81
2021/03/24 12:47:28;;;;;;;8.13;2.10;;;;;;;;;;4870373;29;20044;-80
2021/03/24 12:50:21;;;;;;;6.88;1.95;;;;;;;;;;4883783;29;20067;-85
2021/03/24 12:53:27;;;;;;;8.60;2.42;;;;;;;;;;4870820;29;20043;-86
2021/03/24 12:56:27;;;;;;;9.60;2.42;;;;;;;;;;4822347;29;20108;-83
2021/03/24 12:58:56;;;;;;;6.35;2.25;;;;;;;;;;4826853;29;20124;-81
2021/03/24 13:01:41;;;;;;;7.78;2.10;;;;;;;;;;4847637;29;20123;-81
2021/03/24 13:04:39;;;;;;;8.35;2.35;;;;;;;;;;4826440;29;20220;-82
2021/03/24 13:07:26;;;;;;;9.20;2.17;;;;;;;;;;4848801;29;20600;-80
2021/03/24 13:09:54;;;;;;;;;;;;;;;;;;4832491;29;20096;-77
2021/03/24 13:12:34;;;;;;;9.50;2.20;;;;;;;;;;4841502;29;19919;-81
2021/03/24 13:15:01;;;;;;;8.25;2.20;;;;;;;;;;4851676;29;20084;-81
2021/03/24 13:17:46;;;;;;;9.00;2.90;;;;;;;;;;4860879;29;20633;-80
2021/03/24 13:20:31;;;;;;;7.97;1.95;;;;;;;;;;4838095;29;20095;-82
2021/03/24 13:23:10;;;;;;;9.35;2.17;;;;;;;;;;4855044;29;20039;-81
2021/03/24 13:25:47;;;;;;;8.55;2.08;;;;;;;;;;4850290;29;20044;-82
2021/03/24 13:28:30;;;;;;;8.05;2.03;;;;;;;;;;4865111;29;20127;-83
2021/03/24 13:31:33;;;;;;;6.85;2.03;;;;;;;;;;4851800;29;20119;-87
2021/03/24 13:34:09;;;;;;;11.82;2.17;;;;;;;;;;4816729;29;20135;-79
2021/03/24 13:36:56;;;;;;;10.07;2.60;;;;;;;;;;4780149;29;20046;-80
2021/03/24 13:39:28;;;;;;;8.20;1.90;;;;;;;;;;4810907;29;20088;-79
2021/03/24 13:41:59;;;;;;;8.48;2.25;;;;;;;;;;4853645;29;20205;-81
2021/03/24 13:44:31;;;;;;;8.68;2.35;;;;;;;;;;4853300;29;20047;-81
2021/03/24 13:47:00;;;;;;;8.32;1.98;;;;;;;;;;4844586;29;20068;-82
2021/03/24 13:49:42;;;;;;;8.52;2.40;;;;;;;;;;4852322;29;20499;-81
2021/03/24 13:52:28;;;;;;;7.93;2.05;;;;;;;;;;4838640;29;20044;-81
2021/03/24 13:55:12;;;;;;;8.57;2.10;;;;;;;;;;4843610;29;22179;-81
2021/03/24 13:58:00;;;;;;;8.73;2.13;;;;;;;;;;4821089;29;20583;-81
2021/03/24 14:00:37;;;;;;;6.78;2.15;;;;;;;;;;4837511;29;20042;-80
2021/03/24 14:03:29;;;;;;;10.93;2.08;;;;;;;;;;4837444;29;20029;-81
2021/03/24 14:06:15;;;;;;;7.85;2.03;;;;;;;;;;4736570;29;20032;-81
2021/03/24 14:09:03;;;;;;;10.25;2.45;;;;;;;;;;4785792;29;20766;-80
2021/03/24 14:11:57;;;;;;;6.85;2.17;;;;;;;;;;4773741;29;20636;-80
2021/03/24 14:14:40;;;;;;;7.80;2.13;;;;;;;;;;4714842;29;20042;-81
2021/03/24 14:17:26;;;;;;;8.77;2.25;;;;;;;;;;4766394;29;20206;-81
2021/03/24 14:20:02;;;;;;;8.82;2.80;;;;;;;;;;4770731;29;20050;-81
2021/03/24 14:22:42;;;;;;;9.13;3.20;;;;;;;;;;4793618;29;20048;-81
2021/03/24 14:25:29;;;;;;;9.38;2.08;;;;;;;;;;4785211;29;20048;-81
2021/03/24 14:28:03;;;;;;;8.23;2.30;;;;;;;;;;4775599;29;20085;-81
2021/03/24 14:30:44;;;;;;;9.20;2.78;;;;;;;;;;4793537;29;20059;-81
2021/03/24 14:33:29;;;;;;;10.30;2.78;;;;;;;;;;4789347;29;20042;-82
2021/03/24 14:36:20;;;;;;;9.40;2.50;;;;;;;;;;4789441;29;20051;-81
2021/03/24 14:38:55;;;;;;;9.85;2.20;;;;;;;;;;4795906;29;20051;-78
2021/03/24 14:41:28;;;;;;;8.68;2.15;;;;;;;;;;4787662;29;20065;-77
2021/03/24 14:44:04;;;;;;;11.15;2.42;;;;;;;;;;4887212;29;20050;-79
2021/03/24 14:46:31;;;;;;;;;;;;;;;;;;4878975;29;20237;-78
2021/03/24 14:49:05;;;;;;;9.07;2.25;;;;;;;;;;4886268;29;19923;-79
2021/03/24 14:51:46;;;;;;;7.40;2.30;;;;;;;;;;4895464;29;20040;-79
2021/03/24 14:54:24;;;;;;;8.93;2.50;;;;;;;;;;4888810;29;20037;-78
2021/03/24 14:57:03;;;;;;;8.45;2.40;;;;;;;;;;4898491;28;20420;-78
2021/03/24 14:59:35;;;;;;;7.50;2.42;;;;;;;;;;4891847;29;20923;-79
2021/03/24 15:02:33;;;;;;;8.65;2.08;;;;;;;;;;4888331;29;21064;-79
2021/03/24 15:05:27;;;;;;;6.60;2.10;;;;;;;;;;4868465;29;20060;-78
2021/03/24 15:08:17;;;;;;;8.35;2.13;;;;;;;;;;4754201;29;20040;-78
2021/03/24 15:11:00;;;;;;;8.82;2.00;;;;;;;;;;4763529;29;20050;-77
2021/03/24 15:13:46;;;;;;;7.38;2.30;;;;;;;;;;4788436;29;20172;-78
2021/03/24 15:16:32;;;;;;;8.05;2.15;;;;;;;;;;4787299;29;21181;-78
2021/03/24 15:19:17;;;;;;;10.20;2.23;;;;;;;;;;4789136;29;20134;-77
2021/03/24 15:22:04;;;;;;;7.47;2.30;;;;;;;;;;4796441;29;20038;-77
2021/03/24 15:24:57;;;;;;;7.82;2.42;;;;;;;;;;4777684;29;20071;-77
2021/03/24 15:27:30;;;;;;;9.43;3.00;;;;;;;;;;4758214;29;20889;-81
2021/03/24 15:30:06;;;;;;;8.40;2.80;;;;;;;;;;4758479;29;20054;-78
2021/03/24 15:32:52;;;;;;;11.63;3.17;;;;;;;;;;4759283;29;20047;-78
2021/03/24 15:35:25;;;;;;;9.32;3.40;;;;;;;;;;4744135;29;20040;-78
2021/03/24 15:38:16;;;;;;;12.32;4.28;;;;;;;;;;4760840;29;20059;-79